Hilal Bey — E5U2845 — position and weather

sailwx.info

Track history (hours):
 
Tides and Currents Weather Stations Pressure Air Temp Water Temp Dewpoint Dewpoint Depression Visibility Wind Speed Wind Dir Waves Ship Positions

Hilal Bey

Last reported at 2018-Apr-24 16:54 UTC. Time now 2018-Apr-25 01:02 UTC.
Position N 39°57' E 025°59'.

Length 112 m; draft 5 m.

Type: Cargo ship. MMSI: 518898000.

Date/timePositionNaut miles runAvg speedWind from/ knotsBaromVisibWave heightAir tempDewpointWater temp
2018-Apr-24 16:54N 39°57' E 025°59'3 7.6
2018-Apr-24 16:31N 39°55' E 025°57'15110.6
2018-Apr-24 02:11N 37°44' E 024°20'1311.2
2018-Apr-24 01:02N 37°33' E 024°10'511.2
2018-Apr-24 00:33N 37°29' E 024°06'1011.1
2018-Apr-23 23:37N 37°20' E 023°60'111.0
2018-Apr-23 23:31N 37°19' E 023°59'510.9
2018-Apr-23 23:00N 37°15' E 023°55'510.7
2018-Apr-23 22:31N 37°10' E 023°52'510.8
2018-Apr-23 22:01N 37°05' E 023°48'611.0
2018-Apr-23 21:31N 37°01' E 023°44'611.2
2018-Apr-23 21:00N 36°56' E 023°41'611.1
2018-Apr-23 20:30N 36°51' E 023°37'511.0
2018-Apr-23 20:01N 36°47' E 023°33'  
2018-Apr-21 04:00N 44°23' E 013°08'911.4
2018-Apr-21 03:11N 44°32' E 013°04'511.4
2018-Apr-21 02:47N 44°36' E 013°02'311.6
2018-Apr-21 02:30N 44°39' E 013°00'611.7
2018-Apr-21 02:00N 44°44' E 012°57'611.6
2018-Apr-21 01:31N 44°50' E 012°54'611.5
2018-Apr-21 00:58N 44°55' E 012°49'511.8
2018-Apr-21 00:31N 44°59' E 012°44'4 7.3
2018-Apr-21 00:00N 45°02' E 012°41'0 0.9
2018-Apr-20 23:30N 45°02' E 012°41'4 7.2
2018-Apr-20 23:01N 45°06' E 012°39'7 8.2
2018-Apr-20 22:07N 45°11' E 012°32'1 8.5
2018-Apr-20 22:01N 45°12' E 012°31'4 8.4
2018-Apr-20 21:29N 45°16' E 012°28'4 8.6
2018-Apr-20 21:00N 45°19' E 012°24'4 7.4
2018-Apr-20 20:27N 45°20' E 012°19'3 6.7
2018-Apr-20 20:00N 45°22' E 012°15'4 7.6
2018-Apr-20 19:30N 45°26' E 012°16'2 3.4
2018-Apr-20 19:00N 45°27' E 012°14'0 0.0
2018-Apr-20 18:30N 45°27' E 012°14'0 0.0
2018-Apr-20 18:00N 45°27' E 012°14'0 0.0
2018-Apr-20 17:30N 45°27' E 012°14'0 0.0
2018-Apr-20 16:48N 45°27' E 012°14'0 0.0
2018-Apr-20 16:06N 45°27' E 012°14'0 0.0
2018-Apr-20 15:48N 45°27' E 012°14'0 0.0
2018-Apr-20 15:21N 45°27' E 012°14'0 0.0
2018-Apr-20 14:54N 45°27' E 012°14'0 0.0
2018-Apr-19 06:05N 45°27' E 012°14'0 0.0
2018-Apr-19 05:56N 45°27' E 012°14'0 0.0
2018-Apr-19 05:29N 45°27' E 012°14'0 0.0
2018-Apr-19 04:59N 45°27' E 012°14'0 0.0
2018-Apr-19 04:29N 45°27' E 012°14'0 0.0
2018-Apr-19 03:59N 45°27' E 012°14'0 0.0
2018-Apr-19 03:26N 45°27' E 012°14'0 0.0
2018-Apr-19 02:53N 45°27' E 012°14'0 0.0
2018-Apr-19 02:29N 45°27' E 012°14'0 0.0
2018-Apr-19 01:56N 45°27' E 012°14'0 0.0
2018-Apr-19 01:11N 45°27' E 012°14'0 0.0
2018-Apr-19 00:59N 45°27' E 012°14'0 0.0
2018-Apr-19 00:20N 45°27' E 012°14'0 0.0
2018-Apr-18 23:56N 45°27' E 012°14'0 0.0
2018-Apr-18 22:26N 45°27' E 012°14'0 0.0
2018-Apr-18 21:56N 45°27' E 012°14'0 0.0
2018-Apr-18 21:17N 45°27' E 012°14'0 0.0
2018-Apr-18 20:56N 45°27' E 012°14'0 0.0
2018-Apr-18 20:29N 45°27' E 012°14'0 0.0
2018-Apr-18 19:56N 45°27' E 012°14'0 0.0
2018-Apr-18 19:29N 45°27' E 012°14'0 0.0
2018-Apr-18 18:56N 45°27' E 012°14'0 0.0
2018-Apr-18 18:26N 45°27' E 012°14'0 0.0
2018-Apr-18 17:59N 45°27' E 012°14'0 0.0
2018-Apr-18 17:29N 45°27' E 012°14'0 0.0
2018-Apr-18 16:59N 45°27' E 012°14'0 0.0
2018-Apr-18 16:29N 45°27' E 012°14'0 0.0
2018-Apr-18 15:59N 45°27' E 012°14'0 0.0
2018-Apr-18 15:29N 45°27' E 012°14'0 0.0
2018-Apr-18 14:59N 45°27' E 012°14'0 0.0
2018-Apr-18 14:29N 45°27' E 012°14'0 0.0
2018-Apr-18 13:59N 45°27' E 012°14'0 0.0
2018-Apr-18 13:29N 45°27' E 012°14'0 0.0
2018-Apr-18 12:59N 45°27' E 012°14'0 0.0
2018-Apr-18 12:29N 45°27' E 012°14'0 0.0
2018-Apr-18 11:59N 45°27' E 012°14'0 0.0
2018-Apr-18 11:29N 45°27' E 012°14'0 0.0
2018-Apr-18 10:59N 45°27' E 012°14'0 0.0
2018-Apr-18 10:29N 45°27' E 012°14'0 0.0
2018-Apr-18 09:59N 45°27' E 012°14'0 0.0
2018-Apr-18 09:29N 45°27' E 012°14'0 0.0
2018-Apr-18 09:00N 45°27' E 012°14'1 1.6
2018-Apr-18 08:30N 45°27' E 012°15'3 5.0
2018-Apr-18 07:59N 45°24' E 012°16'4 8.2
2018-Apr-18 07:30N 45°21' E 012°17'5 9.9
2018-Apr-18 07:00N 45°20' E 012°24'1 2.3
2018-Apr-18 06:30N 45°20' E 012°25'2 3.0
2018-Apr-18 06:00N 45°22' E 012°25'0 0.5
2018-Apr-18 05:28N 45°22' E 012°25'0 0.0
2018-Apr-18 04:58N 45°22' E 012°25'0 0.0
2018-Apr-18 04:28N 45°22' E 012°25'0 0.0
2018-Apr-18 03:58N 45°22' E 012°25'0 0.1
2018-Apr-18 03:25N 45°22' E 012°25'0 0.0
2018-Apr-18 02:55N 45°22' E 012°25'0 0.0
2018-Apr-18 02:28N 45°22' E 012°25'0 0.0
2018-Apr-18 01:52N 45°22' E 012°25'0 0.0
2018-Apr-18 01:28N 45°22' E 012°25'0 0.0
2018-Apr-18 00:55N 45°22' E 012°25'0 0.0
2018-Apr-18 00:22N 45°22' E 012°25'0 0.1
2018-Apr-17 23:58N 45°22' E 012°25'0 0.0
2018-Apr-17 23:25N 45°22' E 012°25'0 0.0
2018-Apr-17 22:58N 45°22' E 012°25'0 0.0
2018-Apr-17 22:28N 45°22' E 012°25'0 0.0
2018-Apr-17 21:58N 45°22' E 012°25'0 0.0
2018-Apr-17 21:25N 45°22' E 012°25'0 0.1
2018-Apr-17 20:58N 45°22' E 012°25'0 0.0
2018-Apr-17 20:25N 45°22' E 012°25'0 0.0
2018-Apr-17 19:58N 45°22' E 012°25'0 0.0
2018-Apr-17 19:25N 45°22' E 012°25'0 0.0
2018-Apr-17 18:58N 45°22' E 012°25'0 0.0
2018-Apr-17 18:28N 45°22' E 012°25'0 0.1
2018-Apr-17 17:58N 45°22' E 012°25'0 0.0
2018-Apr-17 17:28N 45°22' E 012°25'0 0.0
2018-Apr-17 16:58N 45°22' E 012°25'0 0.0
2018-Apr-17 16:28N 45°22' E 012°25'0 0.0
2018-Apr-17 15:58N 45°22' E 012°25'0 0.0
2018-Apr-17 15:28N 45°22' E 012°25'0 0.0
2018-Apr-17 14:58N 45°22' E 012°25'0 0.0
2018-Apr-17 14:28N 45°22' E 012°25'0 0.0
2018-Apr-17 13:58N 45°22' E 012°25'0 0.0
2018-Apr-17 13:28N 45°22' E 012°25'0 0.0
2018-Apr-17 12:58N 45°22' E 012°25'0 0.0
2018-Apr-17 12:28N 45°22' E 012°25'0 0.0
2018-Apr-17 12:01N 45°22' E 012°25'0 0.1
2018-Apr-17 11:30N 45°22' E 012°25'0 0.0
2018-Apr-17 11:00N 45°22' E 012°25'0 0.0
2018-Apr-17 10:30N 45°22' E 012°25'0 0.0
2018-Apr-17 10:00N 45°22' E 012°25'0 0.0
2018-Apr-17 09:30N 45°22' E 012°25'0 0.0
2018-Apr-17 09:00N 45°22' E 012°25'0 0.0
2018-Apr-17 08:30N 45°22' E 012°25'0 0.0
2018-Apr-17 08:00N 45°22' E 012°25'0 0.0
2018-Apr-17 07:30N 45°22' E 012°25'0 0.0
2018-Apr-17 07:00N 45°22' E 012°25'0 0.0
2018-Apr-17 06:30N 45°22' E 012°25'0 0.0
2018-Apr-17 06:00N 45°22' E 012°25'0 0.0
2018-Apr-17 05:30N 45°22' E 012°25'0 0.0
2018-Apr-17 05:00N 45°22' E 012°25'0 0.1
2018-Apr-17 04:30N 45°22' E 012°25'0 0.1
2018-Apr-17 04:00N 45°22' E 012°25'0 0.0
2018-Apr-17 03:30N 45°22' E 012°25'0 0.0
2018-Apr-17 03:00N 45°22' E 012°25'0 0.0
2018-Apr-17 02:30N 45°22' E 012°25'0 0.0
2018-Apr-17 02:00N 45°22' E 012°25'0 0.0
2018-Apr-17 01:30N 45°22' E 012°25'0 0.0
2018-Apr-17 01:00N 45°22' E 012°25'0 0.0
2018-Apr-17 00:30N 45°22' E 012°25'0 0.0
2018-Apr-16 23:57N 45°22' E 012°25'0 0.0
2018-Apr-16 23:27N 45°22' E 012°25'0 0.0
2018-Apr-16 23:00N 45°22' E 012°25'0 0.0
2018-Apr-16 22:30N 45°22' E 012°25'0 0.0
2018-Apr-16 22:00N 45°22' E 012°25'0 0.0
2018-Apr-16 21:30N 45°22' E 012°25'0 0.0
2018-Apr-16 21:00N 45°22' E 012°25'0 0.0
2018-Apr-16 20:30N 45°22' E 012°25'0 0.0
2018-Apr-16 20:00N 45°22' E 012°25'0 0.0
2018-Apr-16 19:30N 45°22' E 012°25'0 0.0
2018-Apr-16 19:00N 45°22' E 012°25'0 0.0
2018-Apr-16 18:30N 45°22' E 012°25'0 0.0
2018-Apr-16 18:00N 45°22' E 012°25'0 0.0
2018-Apr-16 17:30N 45°22' E 012°25'0 0.0
2018-Apr-16 17:00N 45°22' E 012°25'0 0.0
2018-Apr-16 16:30N 45°22' E 012°25'0 0.1
2018-Apr-16 16:00N 45°22' E 012°25'0 0.0
2018-Apr-16 15:30N 45°22' E 012°25'0 0.0
2018-Apr-16 14:57N 45°22' E 012°25'0 0.0
2018-Apr-16 14:30N 45°22' E 012°25'0 0.0
2018-Apr-16 14:00N 45°22' E 012°25'0 0.0
2018-Apr-16 13:30N 45°22' E 012°25'0 0.0
2018-Apr-16 13:00N 45°22' E 012°25'0 0.0
2018-Apr-16 12:30N 45°22' E 012°25'0 0.0
2018-Apr-16 12:00N 45°22' E 012°25'0 0.0
2018-Apr-16 11:30N 45°22' E 012°25'0 0.0
2018-Apr-16 11:00N 45°22' E 012°25'0 0.0
2018-Apr-16 10:30N 45°22' E 012°25'0 0.0
2018-Apr-16 10:00N 45°22' E 012°25'0 0.0
2018-Apr-16 09:30N 45°22' E 012°25'0 0.0
2018-Apr-16 09:00N 45°22' E 012°25'0 0.0
2018-Apr-16 08:30N 45°22' E 012°25'0 0.0
2018-Apr-16 08:00N 45°22' E 012°25'0 0.0
2018-Apr-16 07:30N 45°22' E 012°25'0 0.0
2018-Apr-16 07:00N 45°22' E 012°25'0 0.0
2018-Apr-16 06:30N 45°22' E 012°25'0 0.0
2018-Apr-16 06:00N 45°22' E 012°25'0 0.0
2018-Apr-16 05:30N 45°22' E 012°25'0 0.0
2018-Apr-16 05:00N 45°22' E 012°25'0 0.0
2018-Apr-16 04:30N 45°22' E 012°25'0 0.0
2018-Apr-16 04:00N 45°22' E 012°25'0 0.0
2018-Apr-16 03:27N 45°22' E 012°25'0 0.0
2018-Apr-16 03:00N 45°22' E 012°25'0 0.0
2018-Apr-16 02:30N 45°22' E 012°25'0 0.0
2018-Apr-16 02:00N 45°22' E 012°25'0 0.0
2018-Apr-16 01:24N 45°22' E 012°25'0 0.0
2018-Apr-16 01:00N 45°22' E 012°25'0 0.0
2018-Apr-16 00:30N 45°22' E 012°25'0 0.0
2018-Apr-16 00:00N 45°22' E 012°25'0 0.1
2018-Apr-15 23:30N 45°22' E 012°25'0 0.0
2018-Apr-15 23:00N 45°22' E 012°25'0 0.0
2018-Apr-15 22:30N 45°22' E 012°25'0 0.0
2018-Apr-15 21:57N 45°22' E 012°25'0 0.0
2018-Apr-15 21:29N 45°22' E 012°25'0 0.0
2018-Apr-15 20:59N 45°22' E 012°25'0 0.0
2018-Apr-15 20:29N 45°22' E 012°25'0 0.0
2018-Apr-15 20:00N 45°22' E 012°25'0 0.0
2018-Apr-15 19:30N 45°22' E 012°25'0 0.0
2018-Apr-15 18:56N 45°22' E 012°25'0 0.0
2018-Apr-15 18:29N 45°22' E 012°25'0 0.0
2018-Apr-15 17:59N 45°22' E 012°25'0 0.0
2018-Apr-15 17:29N 45°22' E 012°25'0 0.0
2018-Apr-15 16:59N 45°22' E 012°25'0 0.0
2018-Apr-15 16:29N 45°22' E 012°25'0 0.0
2018-Apr-15 15:59N 45°22' E 012°25'0 0.1
2018-Apr-15 15:29N 45°22' E 012°25'0 0.0
2018-Apr-15 14:59N 45°22' E 012°25'0 0.0
2018-Apr-15 14:29N 45°22' E 012°25'0 0.0
2018-Apr-15 13:59N 45°22' E 012°25'0 0.1
2018-Apr-15 13:29N 45°22' E 012°25'0 0.0
2018-Apr-15 12:59N 45°22' E 012°25'0 0.0
2018-Apr-15 12:29N 45°22' E 012°25'0 0.0
2018-Apr-15 11:59N 45°22' E 012°25'0 0.1
2018-Apr-15 11:29N 45°22' E 012°25'0 0.0
2018-Apr-15 10:59N 45°22' E 012°25'0 0.0
2018-Apr-15 10:29N 45°22' E 012°25'0 0.0
2018-Apr-15 09:59N 45°22' E 012°25'0 0.0
2018-Apr-15 09:29N 45°22' E 012°25'0 0.0
2018-Apr-15 08:59N 45°22' E 012°25'0 0.0
2018-Apr-15 08:29N 45°22' E 012°25'0 0.1
2018-Apr-15 07:59N 45°22' E 012°25'0 0.1
2018-Apr-15 07:29N 45°22' E 012°25'0 0.0
2018-Apr-15 06:59N 45°22' E 012°25'0 0.0
2018-Apr-15 06:29N 45°22' E 012°25'0 0.1
2018-Apr-15 05:59N 45°22' E 012°25'0 0.1
2018-Apr-15 05:29N 45°22' E 012°25'0 0.0
2018-Apr-15 04:59N 45°22' E 012°25'0 0.0
2018-Apr-15 04:29N 45°22' E 012°25'0 0.0
2018-Apr-15 03:59N 45°22' E 012°25'0 0.0
2018-Apr-15 03:26N 45°22' E 012°25'0 0.0
2018-Apr-15 02:59N 45°22' E 012°25'0 0.0
2018-Apr-15 02:26N 45°22' E 012°25'0 0.0
2018-Apr-15 01:59N 45°22' E 012°25'0 0.1
2018-Apr-15 01:29N 45°22' E 012°25'0 0.0
2018-Apr-15 00:56N 45°22' E 012°25'0 0.0
2018-Apr-15 00:29N 45°22' E 012°25'0 0.0
2018-Apr-14 23:56N 45°22' E 012°25'0 0.0
2018-Apr-14 23:29N 45°22' E 012°25'0 0.1
2018-Apr-14 22:56N 45°22' E 012°25'0 0.1
2018-Apr-14 22:23N 45°22' E 012°25'0 0.0
2018-Apr-14 21:56N 45°22' E 012°25'0 0.0
2018-Apr-14 21:26N 45°22' E 012°25'0 0.0
2018-Apr-14 20:59N 45°22' E 012°25'0 0.0
2018-Apr-14 20:29N 45°22' E 012°25'0 0.0
2018-Apr-14 19:59N 45°22' E 012°25'0 0.1
2018-Apr-14 19:23N 45°22' E 012°25'0 0.1
2018-Apr-14 18:59N 45°22' E 012°25'0 0.1
2018-Apr-14 18:29N 45°22' E 012°25'0 0.1
2018-Apr-14 17:59N 45°22' E 012°25'0 0.0
2018-Apr-14 17:29N 45°22' E 012°25'0 0.0
2018-Apr-14 16:59N 45°22' E 012°25'  
Track history (hours):
 
Tides and Currents Weather Stations Pressure Air Temp Water Temp Dewpoint Dewpoint Depression Visibility Wind Speed Wind Dir Waves Ship Positions

Hilal Bey

Last reported at 2018-Apr-24 16:54 UTC. Time now 2018-Apr-25 01:02 UTC.
Position N 39°57' E 025°59'.

Length 112 m; draft 5 m.

Type: Cargo ship. MMSI: 518898000.

Date/timePositionNaut miles runAvg speedWind from/ knotsBaromVisibWave heightAir tempDewpointWater temp
2018-Apr-24 16:54N 39°57' E 025°59'3 7.6
2018-Apr-24 16:31N 39°55' E 025°57'15110.6
2018-Apr-24 02:11N 37°44' E 024°20'1311.2
2018-Apr-24 01:02N 37°33' E 024°10'511.2
2018-Apr-24 00:33N 37°29' E 024°06'1011.1
2018-Apr-23 23:37N 37°20' E 023°60'111.0
2018-Apr-23 23:31N 37°19' E 023°59'510.9
2018-Apr-23 23:00N 37°15' E 023°55'510.7
2018-Apr-23 22:31N 37°10' E 023°52'510.8
2018-Apr-23 22:01N 37°05' E 023°48'611.0
2018-Apr-23 21:31N 37°01' E 023°44'611.2
2018-Apr-23 21:00N 36°56' E 023°41'611.1
2018-Apr-23 20:30N 36°51' E 023°37'511.0
2018-Apr-23 20:01N 36°47' E 023°33'  
2018-Apr-21 04:00N 44°23' E 013°08'911.4
2018-Apr-21 03:11N 44°32' E 013°04'511.4
2018-Apr-21 02:47N 44°36' E 013°02'311.6
2018-Apr-21 02:30N 44°39' E 013°00'611.7
2018-Apr-21 02:00N 44°44' E 012°57'611.6
2018-Apr-21 01:31N 44°50' E 012°54'611.5
2018-Apr-21 00:58N 44°55' E 012°49'511.8
2018-Apr-21 00:31N 44°59' E 012°44'4 7.3
2018-Apr-21 00:00N 45°02' E 012°41'0 0.9
2018-Apr-20 23:30N 45°02' E 012°41'4 7.2
2018-Apr-20 23:01N 45°06' E 012°39'7 8.2
2018-Apr-20 22:07N 45°11' E 012°32'1 8.5
2018-Apr-20 22:01N 45°12' E 012°31'4 8.4
2018-Apr-20 21:29N 45°16' E 012°28'4 8.6
2018-Apr-20 21:00N 45°19' E 012°24'4 7.4
2018-Apr-20 20:27N 45°20' E 012°19'3 6.7
2018-Apr-20 20:00N 45°22' E 012°15'4 7.6
2018-Apr-20 19:30N 45°26' E 012°16'2 3.4
2018-Apr-20 19:00N 45°27' E 012°14'0 0.0
2018-Apr-20 18:30N 45°27' E 012°14'0 0.0
2018-Apr-20 18:00N 45°27' E 012°14'0 0.0
2018-Apr-20 17:30N 45°27' E 012°14'0 0.0
2018-Apr-20 16:48N 45°27' E 012°14'0 0.0
2018-Apr-20 16:06N 45°27' E 012°14'0 0.0
2018-Apr-20 15:48N 45°27' E 012°14'0 0.0
2018-Apr-20 15:21N 45°27' E 012°14'0 0.0
2018-Apr-20 14:54N 45°27' E 012°14'0 0.0
2018-Apr-19 06:05N 45°27' E 012°14'0 0.0
2018-Apr-19 05:56N 45°27' E 012°14'0 0.0
2018-Apr-19 05:29N 45°27' E 012°14'0 0.0
2018-Apr-19 04:59N 45°27' E 012°14'0 0.0
2018-Apr-19 04:29N 45°27' E 012°14'0 0.0
2018-Apr-19 03:59N 45°27' E 012°14'0 0.0
2018-Apr-19 03:26N 45°27' E 012°14'0 0.0
2018-Apr-19 02:53N 45°27' E 012°14'0 0.0
2018-Apr-19 02:29N 45°27' E 012°14'0 0.0
2018-Apr-19 01:56N 45°27' E 012°14'0 0.0
2018-Apr-19 01:11N 45°27' E 012°14'0 0.0
2018-Apr-19 00:59N 45°27' E 012°14'0 0.0
2018-Apr-19 00:20N 45°27' E 012°14'0 0.0
2018-Apr-18 23:56N 45°27' E 012°14'0 0.0
2018-Apr-18 22:26N 45°27' E 012°14'0 0.0
2018-Apr-18 21:56N 45°27' E 012°14'0 0.0
2018-Apr-18 21:17N 45°27' E 012°14'0 0.0
2018-Apr-18 20:56N 45°27' E 012°14'0 0.0
2018-Apr-18 20:29N 45°27' E 012°14'0 0.0
2018-Apr-18 19:56N 45°27' E 012°14'0 0.0
2018-Apr-18 19:29N 45°27' E 012°14'0 0.0
2018-Apr-18 18:56N 45°27' E 012°14'0 0.0
2018-Apr-18 18:26N 45°27' E 012°14'0 0.0
2018-Apr-18 17:59N 45°27' E 012°14'0 0.0
2018-Apr-18 17:29N 45°27' E 012°14'0 0.0
2018-Apr-18 16:59N 45°27' E 012°14'0 0.0
2018-Apr-18 16:29N 45°27' E 012°14'0 0.0
2018-Apr-18 15:59N 45°27' E 012°14'0 0.0
2018-Apr-18 15:29N 45°27' E 012°14'0 0.0
2018-Apr-18 14:59N 45°27' E 012°14'0 0.0
2018-Apr-18 14:29N 45°27' E 012°14'0 0.0
2018-Apr-18 13:59N 45°27' E 012°14'0 0.0
2018-Apr-18 13:29N 45°27' E 012°14'0 0.0
2018-Apr-18 12:59N 45°27' E 012°14'0 0.0
2018-Apr-18 12:29N 45°27' E 012°14'0 0.0
2018-Apr-18 11:59N 45°27' E 012°14'0 0.0
2018-Apr-18 11:29N 45°27' E 012°14'0 0.0
2018-Apr-18 10:59N 45°27' E 012°14'0 0.0
2018-Apr-18 10:29N 45°27' E 012°14'0 0.0
2018-Apr-18 09:59N 45°27' E 012°14'0 0.0
2018-Apr-18 09:29N 45°27' E 012°14'0 0.0
2018-Apr-18 09:00N 45°27' E 012°14'1 1.6
2018-Apr-18 08:30N 45°27' E 012°15'3 5.0
2018-Apr-18 07:59N 45°24' E 012°16'4 8.2
2018-Apr-18 07:30N 45°21' E 012°17'5 9.9
2018-Apr-18 07:00N 45°20' E 012°24'1 2.3
2018-Apr-18 06:30N 45°20' E 012°25'2 3.0
2018-Apr-18 06:00N 45°22' E 012°25'0 0.5
2018-Apr-18 05:28N 45°22' E 012°25'0 0.0
2018-Apr-18 04:58N 45°22' E 012°25'0 0.0
2018-Apr-18 04:28N 45°22' E 012°25'0 0.0
2018-Apr-18 03:58N 45°22' E 012°25'0 0.1
2018-Apr-18 03:25N 45°22' E 012°25'0 0.0
2018-Apr-18 02:55N 45°22' E 012°25'0 0.0
2018-Apr-18 02:28N 45°22' E 012°25'0 0.0
2018-Apr-18 01:52N 45°22' E 012°25'0 0.0
2018-Apr-18 01:28N 45°22' E 012°25'0 0.0
2018-Apr-18 00:55N 45°22' E 012°25'0 0.0
2018-Apr-18 00:22N 45°22' E 012°25'0 0.1
2018-Apr-17 23:58N 45°22' E 012°25'0 0.0
2018-Apr-17 23:25N 45°22' E 012°25'0 0.0
2018-Apr-17 22:58N 45°22' E 012°25'0 0.0
2018-Apr-17 22:28N 45°22' E 012°25'0 0.0
2018-Apr-17 21:58N 45°22' E 012°25'0 0.0
2018-Apr-17 21:25N 45°22' E 012°25'0 0.1
2018-Apr-17 20:58N 45°22' E 012°25'0 0.0
2018-Apr-17 20:25N 45°22' E 012°25'0 0.0
2018-Apr-17 19:58N 45°22' E 012°25'0 0.0
2018-Apr-17 19:25N 45°22' E 012°25'0 0.0
2018-Apr-17 18:58N 45°22' E 012°25'0 0.0
2018-Apr-17 18:28N 45°22' E 012°25'0 0.1
2018-Apr-17 17:58N 45°22' E 012°25'0 0.0
2018-Apr-17 17:28N 45°22' E 012°25'0 0.0
2018-Apr-17 16:58N 45°22' E 012°25'0 0.0
2018-Apr-17 16:28N 45°22' E 012°25'0 0.0
2018-Apr-17 15:58N 45°22' E 012°25'0 0.0
2018-Apr-17 15:28N 45°22' E 012°25'0 0.0
2018-Apr-17 14:58N 45°22' E 012°25'0 0.0
2018-Apr-17 14:28N 45°22' E 012°25'0 0.0
2018-Apr-17 13:58N 45°22' E 012°25'0 0.0
2018-Apr-17 13:28N 45°22' E 012°25'0 0.0
2018-Apr-17 12:58N 45°22' E 012°25'0 0.0
2018-Apr-17 12:28N 45°22' E 012°25'0 0.0
2018-Apr-17 12:01N 45°22' E 012°25'0 0.1
2018-Apr-17 11:30N 45°22' E 012°25'0 0.0
2018-Apr-17 11:00N 45°22' E 012°25'0 0.0
2018-Apr-17 10:30N 45°22' E 012°25'0 0.0
2018-Apr-17 10:00N 45°22' E 012°25'0 0.0
2018-Apr-17 09:30N 45°22' E 012°25'0 0.0
2018-Apr-17 09:00N 45°22' E 012°25'0 0.0
2018-Apr-17 08:30N 45°22' E 012°25'0 0.0
2018-Apr-17 08:00N 45°22' E 012°25'0 0.0
2018-Apr-17 07:30N 45°22' E 012°25'0 0.0
2018-Apr-17 07:00N 45°22' E 012°25'0 0.0
2018-Apr-17 06:30N 45°22' E 012°25'0 0.0
2018-Apr-17 06:00N 45°22' E 012°25'0 0.0
2018-Apr-17 05:30N 45°22' E 012°25'0 0.0
2018-Apr-17 05:00N 45°22' E 012°25'0 0.1
2018-Apr-17 04:30N 45°22' E 012°25'0 0.1
2018-Apr-17 04:00N 45°22' E 012°25'0 0.0
2018-Apr-17 03:30N 45°22' E 012°25'0 0.0
2018-Apr-17 03:00N 45°22' E 012°25'0 0.0
2018-Apr-17 02:30N 45°22' E 012°25'0 0.0
2018-Apr-17 02:00N 45°22' E 012°25'0 0.0
2018-Apr-17 01:30N 45°22' E 012°25'0 0.0
2018-Apr-17 01:00N 45°22' E 012°25'0 0.0
2018-Apr-17 00:30N 45°22' E 012°25'0 0.0
2018-Apr-16 23:57N 45°22' E 012°25'0 0.0
2018-Apr-16 23:27N 45°22' E 012°25'0 0.0
2018-Apr-16 23:00N 45°22' E 012°25'0 0.0
2018-Apr-16 22:30N 45°22' E 012°25'0 0.0
2018-Apr-16 22:00N 45°22' E 012°25'0 0.0
2018-Apr-16 21:30N 45°22' E 012°25'0 0.0
2018-Apr-16 21:00N 45°22' E 012°25'0 0.0
2018-Apr-16 20:30N 45°22' E 012°25'0 0.0
2018-Apr-16 20:00N 45°22' E 012°25'0 0.0
2018-Apr-16 19:30N 45°22' E 012°25'0 0.0
2018-Apr-16 19:00N 45°22' E 012°25'0 0.0
2018-Apr-16 18:30N 45°22' E 012°25'0 0.0
2018-Apr-16 18:00N 45°22' E 012°25'0 0.0
2018-Apr-16 17:30N 45°22' E 012°25'0 0.0
2018-Apr-16 17:00N 45°22' E 012°25'0 0.0
2018-Apr-16 16:30N 45°22' E 012°25'0 0.1
2018-Apr-16 16:00N 45°22' E 012°25'0 0.0
2018-Apr-16 15:30N 45°22' E 012°25'0 0.0
2018-Apr-16 14:57N 45°22' E 012°25'0 0.0
2018-Apr-16 14:30N 45°22' E 012°25'0 0.0
2018-Apr-16 14:00N 45°22' E 012°25'0 0.0
2018-Apr-16 13:30N 45°22' E 012°25'0 0.0
2018-Apr-16 13:00N 45°22' E 012°25'0 0.0
2018-Apr-16 12:30N 45°22' E 012°25'0 0.0
2018-Apr-16 12:00N 45°22' E 012°25'0 0.0
2018-Apr-16 11:30N 45°22' E 012°25'0 0.0
2018-Apr-16 11:00N 45°22' E 012°25'0 0.0
2018-Apr-16 10:30N 45°22' E 012°25'0 0.0
2018-Apr-16 10:00N 45°22' E 012°25'0 0.0
2018-Apr-16 09:30N 45°22' E 012°25'0 0.0
2018-Apr-16 09:00N 45°22' E 012°25'0 0.0
2018-Apr-16 08:30N 45°22' E 012°25'0 0.0
2018-Apr-16 08:00N 45°22' E 012°25'0 0.0
2018-Apr-16 07:30N 45°22' E 012°25'0 0.0
2018-Apr-16 07:00N 45°22' E 012°25'0 0.0
2018-Apr-16 06:30N 45°22' E 012°25'0 0.0
2018-Apr-16 06:00N 45°22' E 012°25'0 0.0
2018-Apr-16 05:30N 45°22' E 012°25'0 0.0
2018-Apr-16 05:00N 45°22' E 012°25'0 0.0
2018-Apr-16 04:30N 45°22' E 012°25'0 0.0
2018-Apr-16 04:00N 45°22' E 012°25'0 0.0
2018-Apr-16 03:27N 45°22' E 012°25'0 0.0
2018-Apr-16 03:00N 45°22' E 012°25'0 0.0
2018-Apr-16 02:30N 45°22' E 012°25'0 0.0
2018-Apr-16 02:00N 45°22' E 012°25'0 0.0
2018-Apr-16 01:24N 45°22' E 012°25'0 0.0
2018-Apr-16 01:00N 45°22' E 012°25'0 0.0
2018-Apr-16 00:30N 45°22' E 012°25'0 0.0
2018-Apr-16 00:00N 45°22' E 012°25'0 0.1
2018-Apr-15 23:30N 45°22' E 012°25'0 0.0
2018-Apr-15 23:00N 45°22' E 012°25'0 0.0
2018-Apr-15 22:30N 45°22' E 012°25'0 0.0
2018-Apr-15 21:57N 45°22' E 012°25'0 0.0
2018-Apr-15 21:29N 45°22' E 012°25'0 0.0
2018-Apr-15 20:59N 45°22' E 012°25'0 0.0
2018-Apr-15 20:29N 45°22' E 012°25'0 0.0
2018-Apr-15 20:00N 45°22' E 012°25'0 0.0
2018-Apr-15 19:30N 45°22' E 012°25'0 0.0
2018-Apr-15 18:56N 45°22' E 012°25'0 0.0
2018-Apr-15 18:29N 45°22' E 012°25'0 0.0
2018-Apr-15 17:59N 45°22' E 012°25'0 0.0
2018-Apr-15 17:29N 45°22' E 012°25'0 0.0
2018-Apr-15 16:59N 45°22' E 012°25'0 0.0
2018-Apr-15 16:29N 45°22' E 012°25'0 0.0
2018-Apr-15 15:59N 45°22' E 012°25'0 0.1
2018-Apr-15 15:29N 45°22' E 012°25'0 0.0
2018-Apr-15 14:59N 45°22' E 012°25'0 0.0
2018-Apr-15 14:29N 45°22' E 012°25'0 0.0
2018-Apr-15 13:59N 45°22' E 012°25'0 0.1
2018-Apr-15 13:29N 45°22' E 012°25'0 0.0
2018-Apr-15 12:59N 45°22' E 012°25'0 0.0
2018-Apr-15 12:29N 45°22' E 012°25'0 0.0
2018-Apr-15 11:59N 45°22' E 012°25'0 0.1
2018-Apr-15 11:29N 45°22' E 012°25'0 0.0
2018-Apr-15 10:59N 45°22' E 012°25'0 0.0
2018-Apr-15 10:29N 45°22' E 012°25'0 0.0
2018-Apr-15 09:59N 45°22' E 012°25'0 0.0
2018-Apr-15 09:29N 45°22' E 012°25'0 0.0
2018-Apr-15 08:59N 45°22' E 012°25'0 0.0
2018-Apr-15 08:29N 45°22' E 012°25'0 0.1
2018-Apr-15 07:59N 45°22' E 012°25'0 0.1
2018-Apr-15 07:29N 45°22' E 012°25'0 0.0
2018-Apr-15 06:59N 45°22' E 012°25'0 0.0
2018-Apr-15 06:29N 45°22' E 012°25'0 0.1
2018-Apr-15 05:59N 45°22' E 012°25'0 0.1
2018-Apr-15 05:29N 45°22' E 012°25'0 0.0
2018-Apr-15 04:59N 45°22' E 012°25'0 0.0
2018-Apr-15 04:29N 45°22' E 012°25'0 0.0
2018-Apr-15 03:59N 45°22' E 012°25'0 0.0
2018-Apr-15 03:26N 45°22' E 012°25'0 0.0
2018-Apr-15 02:59N 45°22' E 012°25'0 0.0
2018-Apr-15 02:26N 45°22' E 012°25'0 0.0
2018-Apr-15 01:59N 45°22' E 012°25'0 0.1
2018-Apr-15 01:29N 45°22' E 012°25'0 0.0
2018-Apr-15 00:56N 45°22' E 012°25'0 0.0
2018-Apr-15 00:29N 45°22' E 012°25'0 0.0
2018-Apr-14 23:56N 45°22' E 012°25'0 0.0
2018-Apr-14 23:29N 45°22' E 012°25'0 0.1
2018-Apr-14 22:56N 45°22' E 012°25'0 0.1
2018-Apr-14 22:23N 45°22' E 012°25'0 0.0
2018-Apr-14 21:56N 45°22' E 012°25'0 0.0
2018-Apr-14 21:26N 45°22' E 012°25'0 0.0
2018-Apr-14 20:59N 45°22' E 012°25'0 0.0
2018-Apr-14 20:29N 45°22' E 012°25'0 0.0
2018-Apr-14 19:59N 45°22' E 012°25'0 0.1
2018-Apr-14 19:23N 45°22' E 012°25'0 0.1
2018-Apr-14 18:59N 45°22' E 012°25'0 0.1
2018-Apr-14 18:29N 45°22' E 012°25'0 0.1
2018-Apr-14 17:59N 45°22' E 012°25'0 0.0
2018-Apr-14 17:29N 45°22' E 012°25'0 0.0
2018-Apr-14 16:59N 45°22' E 012°25'  

Dump ship's entire track history